• Join FlightAware (Why Join?)
  • Login
  • US Flag 
07:36PM EDT


 

Airport Tracker/Info


-or-


 

Live Flight TrackerFlight Track Log ✈ RPA3228 ✈ 16-Jul-2013 ✈ KBNA - KDCA

Flight Track Log - Related Links

Times and Time Zones

All times are in EDT time to prevent confusion due to time zone crossing. See the RPA3228 flight status page for this flight to view local times or setup timezone preferences in your user account.

Time Position Orientation Groundspeed Altitude Reporting Facility
EDT Latitude Longitude Course Direction KTS MPH feet Rate Location/Type
07:40AM 36.1333 -86.7000 64° Northeast 162 186 1,400  Level Nashville TRACON
07:40AM 36.1500 -86.7167 321° Northwest 167 192 2,500 2,640 Climbing Nashville TRACON
07:41AM 36.2000 -86.7167 360° North 256 295 5,400 3,180 Climbing Nashville TRACON
07:42AM 36.1598 -86.3011 76° East  Level FlightAware Approximate
07:43AM 36.1837 -86.1810 80° East  Level FlightAware Approximate
07:43AM 36.1947 -86.5789 93° East 292 336 10,700  Level Memphis Center
07:44AM 36.2027 -86.0599 64° Northeast  Level FlightAware Approximate
07:44AM 36.1956 -86.4708 89° East 301 346 13,300  Level Memphis Center
07:45AM 36.2471 -85.9490 64° Northeast  Level FlightAware Approximate
07:45AM 36.1961 -86.3578 90° East 315 362 16,500  Level Memphis Center
07:46AM 36.1967 -86.2444 90° East 326 375 18,800 2,460 Climbing Memphis Center
07:47AM 36.1989 -86.1236 89° East 334 384 21,500 2,340 Climbing Memphis Center
07:48AM 36.2283 -86.0089 72° East 344 396 23,500 1,980 Climbing Memphis Center
07:49AM 36.2803 -85.8903 61° Northeast 370 426 25,500 1,920 Climbing Memphis Center
07:49AM 36.3069 -85.8319 60° Northeast 387 445 26,600 1,680 Climbing Indianapolis Center
07:50AM 36.3600 -85.7181 60° Northeast 396 456 28,300 1,620 Climbing Indianapolis Center
07:51AM 36.4178 -85.5978 59° Northeast 405 466 30,000 1,260 Climbing Indianapolis Center
07:52AM 36.4872 -85.4525 59° Northeast 405 466 31,000 480 Climbing Indianapolis Center
07:53AM 36.5419 -85.3358 60° Northeast 392 451 31,000  Level Indianapolis Center
07:54AM 36.5939 -85.2225 60° Northeast 381 438 31,000  Level Indianapolis Center
07:55AM 36.6478 -85.1069 60° Northeast 383 441 31,000  Level Indianapolis Center
07:56AM 36.7028 -84.9917 59° Northeast 384 442 31,000  Level Indianapolis Center
07:57AM 36.7564 -84.8772 60° Northeast 382 440 31,000  Level Indianapolis Center
07:58AM 36.8097 -84.7608 60° Northeast 385 443 31,000  Level Indianapolis Center
07:59AM 36.8467 -84.6353 70° East 384 442 31,000  Level Indianapolis Center
08:00AM 36.8850 -84.5011 70° East 390 449 31,000  Level Indianapolis Center
08:01AM 36.9261 -84.3539 71° East 385 443 31,000  Level Indianapolis Center
08:03AM 36.9608 -84.2275 71° East 383 441 31,000  Level Indianapolis Center
08:04AM 36.9961 -84.1006 71° East 386 444 31,000  Level Indianapolis Center
08:05AM 37.0322 -83.9733 70° East 387 445 31,000  Level Indianapolis Center
08:06AM 37.0675 -83.8475 71° East 382 440 31,000  Level Indianapolis Center
08:07AM 37.1019 -83.7200 71° East 384 442 31,000  Level Indianapolis Center
08:08AM 37.1378 -83.5933 70° East 383 441 31,000  Level Indianapolis Center
08:09AM 37.1786 -83.4444 71° East 383 441 31,000  Level Indianapolis Center
08:10AM 37.2133 -83.3192 71° East 380 437 31,000  Level Indianapolis Center
08:11AM 37.2469 -83.1933 71° East 377 434 31,000  Level Indianapolis Center
08:12AM 37.2806 -83.0653 72° East 381 438 31,000  Level Indianapolis Center
08:13AM 37.3150 -82.9392 71° East 378 435 31,000  Level Indianapolis Center
08:14AM 37.3481 -82.8111 72° East 380 437 31,000  Level Indianapolis Center
08:15AM 37.3817 -82.6833 72° East 382 440 31,000  Level Indianapolis Center
08:16AM 37.4147 -82.5578 72° East 376 433 31,000  Level Indianapolis Center
08:17AM 37.4539 -82.4114 71° East 376 433 31,000  Level Indianapolis Center
08:18AM 37.4872 -82.2869 71° East 375 432 31,000  Level Indianapolis Center
08:19AM 37.5183 -82.1617 73° East 374 430 31,000  Level Indianapolis Center
08:20AM 37.5508 -82.0358 72° East 376 433 31,000  Level Indianapolis Center
08:21AM 37.5819 -81.9106 73° East 374 430 31,000  Level Indianapolis Center
08:22AM 37.6147 -81.7850 72° East 376 433 31,000  Level Indianapolis Center
08:23AM 37.6478 -81.6586 72° East 378 435 31,000  Level Indianapolis Center
08:24AM 37.6847 -81.5119 72° East 376 433 31,000  Level Indianapolis Center
08:25AM 37.7147 -81.3925 72° East 376 433 31,000  Level Indianapolis Center
08:26AM 37.7447 -81.2678 73° East 380 437 31,000  Level Indianapolis Center
08:27AM 37.7822 -81.1208 72° East 378 435 31,000  Level Indianapolis Center
08:28AM 37.8239 -81.0033 66° East 383 441 31,000  Level Indianapolis Center
08:29AM 37.8667 -80.8806 66° East 382 440 31,000  Level Indianapolis Center
08:30AM 37.9094 -80.7586 66° East 381 438 31,000  Level Indianapolis Center
08:31AM 37.9525 -80.6356 66° East 383 441 31,000  Level Indianapolis Center
08:32AM 38.0047 -80.4886 66° East 382 440 31,000  Level Indianapolis Center
08:33AM 38.0439 -80.3775 66° East 385 443 31,000  Level Indianapolis Center
08:34AM 38.0917 -80.2411 66° East 383 441 31,000  Level Indianapolis Center
08:35AM 38.1375 -80.1122 66° East 384 442 31,000  Level Indianapolis Center
08:37AM 38.1806 -79.9922 65° Northeast 381 438 31,000  Level Indianapolis Center
08:38AM 38.2236 -79.8714 66° East 384 442 31,000  Level Indianapolis Center
08:39AM 38.2742 -79.7258 66° East 384 442 31,000  Level Indianapolis Center
08:40AM 38.3153 -79.6044 67° East 383 441 31,000  Level Indianapolis Center
08:41AM 38.3717 -79.4558 64° Northeast 386 444 31,000 -720 Level Washington Center
08:42AM 38.4086 -79.3464 67° East 386 444 29,500 -1,620 Descending Washington Center
08:43AM 38.4419 -79.2128 72° East 386 444 27,900 720 Descending Washington Center
08:44AM 38.4667 -79.0761 77° East 386 444 31,000 -960 Climbing Washington Center
08:45AM 38.4875 -78.9392 79° East 386 444 26,000 -2,520 Descending Washington Center
08:46AM 38.5125 -78.7811 79° East 407 468 26,000  Level Washington Center
08:47AM 38.5328 -78.6414 79° East 407 468 26,000 -1,200 Level Washington Center
08:48AM 38.5550 -78.5042 78° East 407 468 23,700 -2,520 Descending Washington Center
08:49AM 38.5789 -78.3722 77° East 395 455 20,900 -2,340 Descending Washington Center
08:50AM 38.6006 -78.2428 78° East 384 442 19,000 -1,500 Descending Washington Center
08:51AM 38.6386 -78.1247 68° East 364 419 17,700 -1,680 Descending Washington Center
08:52AM 38.6833 -77.9853 68° East 352 405 15,400 -2,040 Descending Washington Center
08:53AM 38.7189 -77.8719 68° East 346 398 13,700 -1,560 Descending Washington Center
08:54AM 38.7622 -77.7828 58° Northeast 318 366 12,300 -1,320 Descending Washington Center
08:55AM 38.8156 -77.7017 50° Northeast 297 342 11,100 -1,260 Descending Washington Center
08:56AM 38.8500 -77.6000 66° East 289 333 9,800 -1,200 Descending Potomac TRACON
08:57AM 38.8833 -77.5167 63° Northeast 290 334 8,800 -1,200 Descending Potomac TRACON
08:58AM 38.9000 -77.4167 78° East 294 338 7,500 -1,260 Descending Potomac TRACON
08:59AM 38.8667 -77.3333 117° Southeast 277 319 6,300 -780 Descending Potomac TRACON
09:00AM 38.8333 -77.2500 117° Southeast 241 277 6,000 -180 Descending Potomac TRACON
09:01AM 38.8000 -77.1833 123° Southeast 242 278 6,000 -240 Level Potomac TRACON
09:02AM 38.7667 -77.1167 123° Southeast 245 282 5,600 -960 Descending Potomac TRACON
09:03AM 38.7000 -77.1167 180° South 240 276 4,200 -900 Descending Potomac TRACON
09:04AM 38.6333 -77.1000 169° South 212 244 4,000 -180 Descending Potomac TRACON
09:05AM 38.6167 -77.0667 123° Southeast 202 232 3,900 -600 Descending Potomac TRACON
09:06AM 38.6500 -77.0333 38° Northeast 169 194 2,900 -780 Descending Potomac TRACON
09:07AM 38.7000 -77.0333 360° North 170 196 2,500 -420 Descending Potomac TRACON